createdAt,value
2022-12-18T00:01:34.419Z,51175.88
2022-12-18T00:04:06.935Z,51165.91
2022-12-18T00:06:36.140Z,51173.88
2022-12-18T00:09:04.484Z,51191.78
2022-12-18T00:11:32.590Z,51165.91
2022-12-18T00:14:01.322Z,51163.94
2022-12-18T00:16:29.846Z,51177.84
2022-12-18T00:19:02.261Z,51201.72
2022-12-18T00:21:31.353Z,51185.81
2022-12-18T00:23:59.935Z,51197.72
2022-12-18T00:26:30.905Z,51189.78
2022-12-18T00:29:14.747Z,51165.91
2022-12-18T00:31:44.825Z,51191.78
2022-12-18T00:34:13.762Z,51201.72
2022-12-18T00:36:42.304Z,51161.94
2022-12-18T00:39:11.621Z,51150.03
2022-12-18T00:41:57.538Z,51157.97
2022-12-18T00:44:26.188Z,51138.09
2022-12-18T00:46:53.375Z,51173.88
2022-12-18T00:49:21.425Z,51169.91
2022-12-18T00:51:49.157Z,51157.97
2022-12-18T00:54:17.347Z,51177.84
2022-12-18T00:56:49.282Z,51150.03
2022-12-18T00:59:19.053Z,51183.81
2022-12-18T01:01:47.473Z,51167.91
2022-12-18T01:04:15.053Z,51142.06
2022-12-18T01:06:45.944Z,51167.91
2022-12-18T01:09:13.246Z,51197.72
2022-12-18T01:11:41.084Z,51189.78
2022-12-18T01:14:08.497Z,51152.00
2022-12-18T01:16:38.345Z,51185.81
2022-12-18T01:19:05.520Z,51165.91
2022-12-18T01:21:32.699Z,51154.00
2022-12-18T01:24:04.624Z,51155.97
2022-12-18T01:26:33.555Z,51136.09
2022-12-18T01:29:00.792Z,51183.81
2022-12-18T01:31:31.165Z,51189.78
2022-12-18T01:33:59.196Z,51185.81
2022-12-18T01:36:35.442Z,51144.06
2022-12-18T01:39:11.068Z,51195.75
2022-12-18T01:41:58.179Z,51201.72
2022-12-18T01:45:04.612Z,51157.97
2022-12-18T01:47:40.552Z,51146.03
2022-12-18T01:50:24.033Z,51191.78
2022-12-18T01:53:00.351Z,51169.91
2022-12-18T01:55:32.307Z,51203.69
2022-12-18T01:58:01.197Z,51144.06
2022-12-18T02:00:29.470Z,51150.03
2022-12-18T02:02:57.757Z,51165.91
2022-12-18T02:06:01.851Z,51159.97
2022-12-18T02:08:55.441Z,51142.06
2022-12-18T02:11:42.982Z,51161.94
2022-12-18T02:14:42.680Z,51171.88
2022-12-18T02:17:14.937Z,51169.91
2022-12-18T02:20:11.089Z,51152.00
2022-12-18T02:22:40.943Z,51165.91
2022-12-18T02:25:54.856Z,51157.97
2022-12-18T02:28:24.521Z,51154.00
2022-12-18T02:30:57.852Z,51171.88
2022-12-18T02:33:30.963Z,51163.94
2022-12-18T02:36:00.201Z,51189.78
2022-12-18T02:38:31.457Z,51148.03
2022-12-18T02:41:06.769Z,51146.03
2022-12-18T02:43:34.162Z,51173.88
2022-12-18T02:46:52.451Z,51161.94
2022-12-18T02:49:33.533Z,51173.88
2022-12-18T02:52:38.702Z,51159.97
2022-12-18T02:55:32.939Z,51159.97
2022-12-18T02:58:13.853Z,51161.94
2022-12-18T03:00:47.793Z,51154.00
2022-12-18T03:03:53.684Z,51167.91
2022-12-18T03:06:31.677Z,51159.97
2022-12-18T03:09:10.867Z,51173.88
2022-12-18T03:12:05.310Z,51177.84
2022-12-18T03:14:35.430Z,51138.09
2022-12-18T03:17:05.335Z,51185.81
2022-12-18T03:19:35.318Z,51154.00
2022-12-18T03:22:06.059Z,51177.84
2022-12-18T03:24:43.131Z,51165.91
2022-12-18T03:27:16.128Z,51165.91
2022-12-18T03:30:10.323Z,51146.03
2022-12-18T03:33:10.103Z,51163.94
2022-12-18T03:35:43.605Z,51138.09
2022-12-18T03:38:13.052Z,51148.03
2022-12-18T03:40:46.316Z,51154.00
2022-12-18T03:43:30.580Z,51171.88
2022-12-18T03:46:54.214Z,51173.88
2022-12-18T03:49:39.040Z,51187.78
2022-12-18T03:52:29.041Z,51138.09
2022-12-18T03:54:59.322Z,51163.94
2022-12-18T03:57:30.367Z,51144.06
2022-12-18T04:00:24.257Z,51130.13
2022-12-18T04:03:03.288Z,51189.78
2022-12-18T04:05:38.084Z,51148.03
2022-12-18T04:08:06.712Z,51187.78
2022-12-18T04:10:38.049Z,51144.06
2022-12-18T04:13:05.296Z,51169.91
2022-12-18T04:15:36.049Z,51189.78
2022-12-18T04:18:04.903Z,51169.91
2022-12-18T04:20:39.399Z,51193.75
2022-12-18T04:23:06.517Z,51167.91
2022-12-18T04:25:34.015Z,51154.00
2022-12-18T04:28:10.843Z,51152.00
2022-12-18T04:30:39.647Z,51138.09
2022-12-18T04:33:12.425Z,51144.06
2022-12-18T04:35:41.301Z,51165.91
2022-12-18T04:38:09.829Z,51173.88
2022-12-18T04:40:38.599Z,51169.91
2022-12-18T04:43:12.521Z,51183.81
2022-12-18T04:45:40.063Z,51146.03
2022-12-18T04:48:07.851Z,51146.03
2022-12-18T04:50:35.046Z,51157.97
2022-12-18T04:53:02.177Z,51148.03
2022-12-18T04:55:29.969Z,51136.09
2022-12-18T04:57:57.059Z,51126.16
2022-12-18T05:00:24.364Z,51163.94
2022-12-18T05:02:52.986Z,51173.88
2022-12-18T05:05:20.323Z,51155.97
2022-12-18T05:07:47.404Z,51179.84
2022-12-18T05:10:14.667Z,51155.97
2022-12-18T05:12:59.315Z,51148.03
2022-12-18T05:15:30.775Z,51142.06
2022-12-18T05:17:59.138Z,51152.00
2022-12-18T05:20:28.036Z,51177.84
2022-12-18T05:22:55.653Z,51150.03
2022-12-18T05:25:23.569Z,51148.03
2022-12-18T05:27:50.786Z,51146.03
2022-12-18T05:30:18.346Z,51161.94
2022-12-18T05:32:45.450Z,51195.75
2022-12-18T05:35:12.799Z,51148.03
2022-12-18T05:37:43.317Z,51157.97
2022-12-18T05:40:12.056Z,51171.88
2022-12-18T05:42:39.463Z,51144.06
2022-12-18T05:45:07.709Z,51142.06
2022-12-18T05:47:34.895Z,51161.94
2022-12-18T05:50:02.095Z,51173.88
2022-12-18T05:52:29.149Z,51157.97
2022-12-18T05:54:56.413Z,51148.03
2022-12-18T05:57:23.539Z,51142.06
2022-12-18T05:59:50.610Z,51152.00
2022-12-18T06:02:18.784Z,51165.91
2022-12-18T06:04:45.993Z,51189.78
2022-12-18T06:07:13.127Z,51163.94
2022-12-18T06:09:40.215Z,51150.03
2022-12-18T06:12:07.816Z,51173.88
2022-12-18T06:14:34.889Z,51163.94
2022-12-18T06:17:02.066Z,51165.91
2022-12-18T06:19:29.172Z,51183.81
2022-12-18T06:21:58.774Z,51154.00
2022-12-18T06:24:25.962Z,51142.06
2022-12-18T06:26:53.247Z,51150.03
2022-12-18T06:29:20.324Z,51161.94
2022-12-18T06:31:47.504Z,51146.03
2022-12-18T06:34:14.589Z,51136.09
2022-12-18T06:36:41.828Z,51169.91
2022-12-18T06:39:09.001Z,51142.06
2022-12-18T06:41:36.482Z,51148.03
2022-12-18T06:44:04.152Z,51146.03
2022-12-18T06:46:31.325Z,51155.97
2022-12-18T06:48:58.415Z,51154.00
2022-12-18T06:51:26.904Z,51159.97
2022-12-18T06:53:54.097Z,51159.97
2022-12-18T06:56:21.413Z,51148.03
2022-12-18T06:58:51.111Z,51134.13
2022-12-18T07:01:18.495Z,51207.66
2022-12-18T07:03:46.037Z,51159.97
2022-12-18T07:06:21.974Z,51193.75
2022-12-18T07:08:50.713Z,51134.13
2022-12-18T07:11:18.852Z,51157.97
2022-12-18T07:13:47.135Z,51150.03
2022-12-18T07:16:24.392Z,51159.97
2022-12-18T07:18:52.887Z,51157.97
2022-12-18T07:21:21.376Z,51144.06
2022-12-18T07:23:49.456Z,51171.88
2022-12-18T07:26:20.735Z,51157.97
2022-12-18T07:28:48.696Z,51144.06
2022-12-18T07:31:22.112Z,51157.97
2022-12-18T07:33:50.769Z,51148.03
2022-12-18T07:36:18.094Z,51150.03
2022-12-18T07:38:49.264Z,51138.09
2022-12-18T07:41:17.102Z,51155.97
2022-12-18T07:43:44.641Z,51134.13
2022-12-18T07:46:15.168Z,51159.97
2022-12-18T07:48:45.223Z,51152.00
2022-12-18T07:51:18.870Z,51161.94
2022-12-18T07:53:46.276Z,51161.94
2022-12-18T07:56:31.113Z,51136.09
2022-12-18T07:59:00.185Z,51144.06
2022-12-18T08:01:30.763Z,51150.03
2022-12-18T08:03:59.481Z,51154.00
2022-12-18T08:06:26.971Z,51163.94
2022-12-18T08:08:55.935Z,51152.00
2022-12-18T08:11:26.285Z,51165.91
2022-12-18T08:13:54.098Z,51144.06
2022-12-18T08:16:22.397Z,51130.13
2022-12-18T08:18:50.744Z,51138.09
2022-12-18T08:21:22.917Z,51150.03
2022-12-18T08:23:52.194Z,51148.03
2022-12-18T08:26:20.951Z,51157.97
2022-12-18T08:28:49.122Z,51132.13
2022-12-18T08:31:18.180Z,51142.06
2022-12-18T08:33:45.432Z,51152.00
2022-12-18T08:36:12.495Z,51157.97
2022-12-18T08:38:39.607Z,51146.03
2022-12-18T08:41:10.290Z,51175.88
2022-12-18T08:43:55.768Z,51175.88
2022-12-18T08:46:25.618Z,51187.78
2022-12-18T08:48:54.406Z,51142.06
2022-12-18T08:51:21.694Z,51138.09
2022-12-18T08:53:49.202Z,51132.13
2022-12-18T08:56:16.861Z,51148.03
2022-12-18T08:58:44.764Z,51201.72
2022-12-18T09:01:13.729Z,51169.91
2022-12-18T09:03:41.558Z,51148.03
2022-12-18T09:06:09.351Z,51148.03
2022-12-18T09:08:38.020Z,51152.00
2022-12-18T09:11:05.593Z,51126.16
2022-12-18T09:13:32.715Z,51126.16
2022-12-18T09:15:59.968Z,51122.19
2022-12-18T09:18:27.090Z,51169.91
2022-12-18T09:20:54.420Z,51165.91
2022-12-18T09:23:23.951Z,51152.00
2022-12-18T09:25:51.103Z,51148.03
2022-12-18T09:28:20.306Z,51165.91
2022-12-18T09:30:50.606Z,51157.97
2022-12-18T09:33:19.231Z,51155.97
2022-12-18T09:35:47.646Z,51142.06
2022-12-18T09:38:19.157Z,51146.03
2022-12-18T09:40:51.264Z,51146.03
2022-12-18T09:43:36.947Z,51130.13
2022-12-18T09:46:10.269Z,51146.03
2022-12-18T09:48:43.995Z,51163.94
2022-12-18T09:51:43.761Z,51173.88
2022-12-18T09:54:39.670Z,51142.06
2022-12-18T09:57:07.058Z,51138.09
2022-12-18T09:59:40.829Z,51154.00
2022-12-18T10:02:27.920Z,51163.94
2022-12-18T10:05:15.968Z,51173.88
2022-12-18T10:08:06.798Z,51159.97
2022-12-18T10:10:50.819Z,51154.00
2022-12-18T10:13:40.735Z,51152.00
2022-12-18T10:16:35.413Z,51195.75
2022-12-18T10:19:05.149Z,51142.06
2022-12-18T10:22:28.309Z,51144.06
2022-12-18T10:25:16.612Z,51167.91
2022-12-18T10:27:43.921Z,51157.97
2022-12-18T10:30:18.438Z,51130.13
2022-12-18T10:32:45.838Z,51159.97
2022-12-18T10:35:27.886Z,51154.00
2022-12-18T10:38:22.479Z,51157.97
2022-12-18T10:41:09.558Z,51205.69
2022-12-18T10:43:40.497Z,51155.97
2022-12-18T10:46:10.626Z,51142.06
2022-12-18T10:48:59.192Z,51157.97
2022-12-18T10:51:31.950Z,51144.06
2022-12-18T10:54:15.712Z,51175.88
2022-12-18T10:56:43.692Z,51148.03
2022-12-18T10:59:15.623Z,51146.03
2022-12-18T11:01:58.933Z,51207.66
2022-12-18T11:04:36.318Z,51152.00
2022-12-18T11:07:07.056Z,51157.97
2022-12-18T11:09:41.646Z,51189.78
2022-12-18T11:12:11.673Z,51179.84
2022-12-18T11:14:51.338Z,51169.91
2022-12-18T11:17:37.460Z,51175.88
2022-12-18T11:20:20.866Z,51219.59
2022-12-18T11:23:03.135Z,51203.69
2022-12-18T11:25:34.589Z,51217.59
2022-12-18T11:28:27.862Z,51205.69
2022-12-18T11:31:27.100Z,51205.69
2022-12-18T11:34:30.221Z,51209.66
2022-12-18T11:37:00.785Z,51229.53
2022-12-18T11:39:47.574Z,51221.59
2022-12-18T11:42:26.857Z,51235.50
2022-12-18T11:45:13.758Z,51249.41
2022-12-18T11:47:55.398Z,51225.56
2022-12-18T11:50:47.888Z,51277.25
2022-12-18T11:53:15.022Z,51261.34
2022-12-18T11:56:23.980Z,51243.47
2022-12-18T11:59:16.063Z,51257.38
2022-12-18T12:01:56.755Z,51273.28
2022-12-18T12:05:14.405Z,51283.22
2022-12-18T12:08:02.305Z,51313.03
2022-12-18T12:11:05.875Z,51297.13
2022-12-18T12:13:38.275Z,51269.31
2022-12-18T12:16:11.682Z,51287.19
2022-12-18T12:18:57.853Z,51301.09
2022-12-18T12:21:53.688Z,51265.31
2022-12-18T12:24:52.889Z,51305.09
2022-12-18T12:27:33.552Z,51277.25
2022-12-18T12:30:17.939Z,51311.06
2022-12-18T12:33:09.369Z,51283.22
2022-12-18T12:35:48.936Z,51293.16
2022-12-18T12:55:21.562Z,51261.34
2022-12-18T12:58:32.286Z,51263.34
2022-12-18T13:01:23.410Z,51269.31
2022-12-18T13:04:03.489Z,51267.31
2022-12-18T13:07:13.644Z,51239.47
2022-12-18T13:10:22.368Z,51261.34
2022-12-18T13:12:59.021Z,51225.56
2022-12-18T13:15:49.389Z,51249.41
2022-12-18T13:18:25.165Z,51263.34
2022-12-18T13:20:59.952Z,51249.41
2022-12-18T13:23:37.380Z,51219.59
2022-12-18T13:26:07.550Z,51233.50
2022-12-18T13:28:52.586Z,51237.50
2022-12-18T13:31:42.054Z,51259.34
2022-12-18T13:34:27.664Z,51253.41
2022-12-18T13:37:00.535Z,51225.56
2022-12-18T13:39:36.803Z,51221.59
2022-12-18T13:42:07.334Z,51219.59
2022-12-18T13:44:41.019Z,51247.44
2022-12-18T13:47:36.232Z,51237.50
2022-12-18T13:50:21.593Z,51251.41
2022-12-18T13:52:49.844Z,51225.56
2022-12-18T13:55:20.915Z,51235.50
2022-12-18T13:57:48.611Z,51231.53
2022-12-18T14:00:30.915Z,51211.66
2022-12-18T14:03:00.322Z,51239.47
2022-12-18T14:05:38.735Z,51229.53
2022-12-18T14:08:12.773Z,51213.63
2022-12-18T14:10:48.177Z,51213.63
2022-12-18T14:13:32.497Z,51231.53
2022-12-18T14:16:03.913Z,51233.50
2022-12-18T14:18:43.718Z,51211.66
2022-12-18T14:21:24.477Z,51237.50
2022-12-18T14:24:19.460Z,51243.47
2022-12-18T14:26:48.440Z,51205.69
2022-12-18T14:29:32.243Z,51243.47
2022-12-18T14:32:18.685Z,51255.38
2022-12-18T14:34:52.231Z,51223.56
2022-12-18T14:37:26.380Z,51223.56
2022-12-18T14:40:02.170Z,51225.56
2022-12-18T14:42:31.927Z,51219.59
2022-12-18T14:45:43.746Z,51223.56
2022-12-18T14:48:42.822Z,51227.56
2022-12-18T14:51:22.448Z,51217.59
2022-12-18T14:54:17.964Z,51199.72
2022-12-18T14:56:48.891Z,51211.66
2022-12-18T14:59:25.032Z,51225.56
2022-12-18T15:01:58.359Z,51237.50
2022-12-18T15:04:33.021Z,51217.59
2022-12-18T15:07:12.253Z,51211.66
2022-12-18T15:09:42.581Z,51229.53
2022-12-18T15:12:49.029Z,51229.53
2022-12-18T15:15:40.363Z,51209.66
2022-12-18T15:18:13.125Z,51217.59
2022-12-18T15:20:55.891Z,51231.53
2022-12-18T15:23:26.800Z,51233.50
2022-12-18T15:26:03.443Z,51197.72
2022-12-18T15:28:45.584Z,51205.69
2022-12-18T15:31:17.947Z,51213.63
2022-12-18T15:34:21.556Z,51205.69
2022-12-18T15:36:48.654Z,51225.56
2022-12-18T15:39:15.598Z,51213.63
2022-12-18T15:42:02.626Z,51189.78
2022-12-18T15:44:29.703Z,51205.69
2022-12-18T15:46:57.234Z,51209.66
2022-12-18T15:49:24.170Z,51217.59
2022-12-18T15:51:59.569Z,51185.81
2022-12-18T15:54:45.308Z,51169.91
2022-12-18T15:57:25.201Z,51219.59
2022-12-18T15:59:58.922Z,51229.53
2022-12-18T16:02:26.539Z,51221.59
2022-12-18T16:04:54.807Z,51201.72
2022-12-18T16:07:25.076Z,51201.72
2022-12-18T16:09:53.384Z,51215.63
2022-12-18T16:12:25.957Z,51197.72
2022-12-18T16:14:52.987Z,51231.53
2022-12-18T16:17:20.459Z,51231.53
2022-12-18T16:19:47.413Z,51197.72
2022-12-18T16:22:30.285Z,51205.69
2022-12-18T16:24:58.658Z,51195.75
2022-12-18T16:27:26.627Z,51199.72
2022-12-18T16:29:53.718Z,51171.88
2022-12-18T16:32:23.324Z,51205.69
2022-12-18T16:34:50.719Z,51207.66
2022-12-18T16:37:17.842Z,51229.53
2022-12-18T16:39:45.234Z,51189.78
2022-12-18T16:42:21.151Z,51215.63
2022-12-18T16:44:50.182Z,51205.69
2022-12-18T16:47:18.256Z,51213.63
2022-12-18T16:49:51.773Z,51229.53
2022-12-18T16:52:19.809Z,51227.56
2022-12-18T16:54:46.749Z,51209.66
2022-12-18T16:57:17.429Z,51205.69
2022-12-18T16:59:45.061Z,51203.69
2022-12-18T17:02:23.800Z,51193.75
2022-12-18T17:04:55.275Z,51207.66
2022-12-18T17:07:23.315Z,51209.66
2022-12-18T17:09:51.328Z,51171.88
2022-12-18T17:12:18.575Z,51189.78
2022-12-18T17:14:45.612Z,51225.56
2022-12-18T17:17:22.692Z,51199.72
2022-12-18T17:19:51.778Z,51215.63
2022-12-18T17:22:20.133Z,51205.69
2022-12-18T17:24:47.531Z,51241.47
2022-12-18T17:27:15.272Z,51191.78
2022-12-18T17:29:47.223Z,51231.53
2022-12-18T17:32:15.610Z,51201.72
2022-12-18T17:34:43.792Z,51209.66
2022-12-18T17:37:13.222Z,51203.69
2022-12-18T17:39:44.028Z,51207.66
2022-12-18T17:42:15.237Z,51195.75
2022-12-18T17:44:43.610Z,51203.69
2022-12-18T17:47:12.267Z,51215.63
2022-12-18T17:49:43.744Z,51201.72
2022-12-18T17:52:11.245Z,51185.81
2022-12-18T17:54:41.373Z,51203.69
2022-12-18T17:57:08.496Z,51171.88
2022-12-18T17:59:35.523Z,51203.69
2022-12-18T18:02:02.726Z,51205.69
2022-12-18T18:04:29.921Z,51159.97
2022-12-18T18:06:56.865Z,51175.88
2022-12-18T18:09:23.875Z,51175.88
2022-12-18T18:12:09.434Z,51209.66
2022-12-18T18:14:36.529Z,51215.63
2022-12-18T18:17:04.678Z,51217.59
2022-12-18T18:19:33.265Z,51195.75
2022-12-18T18:22:00.453Z,51169.91
2022-12-18T18:24:28.069Z,51207.66
2022-12-18T18:26:55.036Z,51187.78
2022-12-18T18:29:26.219Z,51211.66
2022-12-18T18:31:54.067Z,51227.56
2022-12-18T18:34:27.918Z,51209.66
2022-12-18T18:36:55.299Z,51169.91
2022-12-18T18:39:22.329Z,51211.66
2022-12-18T18:41:49.278Z,51207.66
2022-12-18T18:44:24.807Z,51199.72
2022-12-18T18:46:57.691Z,51193.75
2022-12-18T18:49:27.503Z,51191.78
2022-12-18T18:51:57.421Z,51205.69
2022-12-18T18:54:26.129Z,51191.78
2022-12-18T18:59:40.138Z,51205.69
2022-12-18T19:02:12.388Z,51191.78
2022-12-18T19:04:44.957Z,51233.50
2022-12-18T19:07:29.346Z,51213.63
2022-12-18T19:10:03.076Z,51197.72
2022-12-18T19:12:50.348Z,51191.78
2022-12-18T19:15:17.508Z,51189.78
2022-12-18T19:17:47.089Z,51201.72
2022-12-18T19:20:15.947Z,51191.78
2022-12-18T19:22:43.372Z,51191.78
2022-12-18T19:25:13.130Z,51213.63
2022-12-18T19:27:40.279Z,51205.69
2022-12-18T19:30:08.434Z,51179.84
2022-12-18T19:32:35.568Z,51213.63
2022-12-18T19:35:02.858Z,51187.78
2022-12-18T19:37:30.340Z,51187.78
2022-12-18T19:39:57.410Z,51219.59
2022-12-18T19:42:29.379Z,51199.72
2022-12-18T19:45:00.493Z,51175.88
2022-12-18T19:47:27.551Z,51197.72
2022-12-18T19:49:54.558Z,51189.78
2022-12-18T19:52:21.618Z,51171.88
2022-12-18T19:54:48.678Z,51203.69
2022-12-18T19:57:15.884Z,51197.72
2022-12-18T19:59:42.951Z,51229.53
2022-12-18T20:02:17.001Z,51197.72
2022-12-18T20:04:44.268Z,51239.47
2022-12-18T20:07:11.341Z,51219.59
2022-12-18T20:09:38.496Z,51189.78
2022-12-18T20:12:05.947Z,51201.72
2022-12-18T20:14:33.170Z,51193.75
2022-12-18T20:17:00.413Z,51205.69
2022-12-18T20:19:27.874Z,51201.72
2022-12-18T20:21:55.691Z,51195.75
2022-12-18T20:24:22.691Z,51201.72
2022-12-18T20:26:49.782Z,51223.56
2022-12-18T20:29:18.394Z,51207.66
2022-12-18T20:31:45.902Z,51213.63
2022-12-18T20:34:12.935Z,51185.81
2022-12-18T20:36:41.182Z,51217.59
2022-12-18T20:39:10.060Z,51217.59
2022-12-18T20:41:39.678Z,51211.66
2022-12-18T20:44:23.650Z,51213.63
2022-12-18T20:46:58.004Z,51215.63
2022-12-18T20:49:26.946Z,51195.75
2022-12-18T20:51:56.590Z,51205.69
2022-12-18T20:54:26.192Z,51197.72
2022-12-18T20:56:53.420Z,51217.59
2022-12-18T20:59:20.648Z,51209.66
2022-12-18T21:01:49.010Z,51207.66
2022-12-18T21:04:20.326Z,51197.72
2022-12-18T21:06:54.086Z,51189.78
2022-12-18T21:09:24.814Z,51205.69
2022-12-18T21:12:10.888Z,51201.72
2022-12-18T21:14:42.547Z,51227.56
2022-12-18T21:17:09.718Z,51199.72
2022-12-18T21:19:36.986Z,51213.63
2022-12-18T21:22:05.040Z,51225.56
2022-12-18T21:24:32.788Z,51211.66
2022-12-18T21:27:00.750Z,51197.72
2022-12-18T21:29:27.861Z,51209.66
2022-12-18T21:31:55.268Z,51201.72
2022-12-18T21:34:26.356Z,51193.75
2022-12-18T21:36:55.954Z,51205.69
2022-12-18T21:39:23.910Z,51169.91
2022-12-18T21:42:09.693Z,51209.66
2022-12-18T21:44:41.660Z,51213.63
2022-12-18T21:47:22.201Z,51171.88
2022-12-18T21:49:52.768Z,51221.59
2022-12-18T21:52:27.291Z,51217.59
2022-12-18T21:55:04.578Z,51207.66
2022-12-18T21:57:35.495Z,51205.69
2022-12-18T22:00:03.105Z,51211.66
2022-12-18T22:02:39.185Z,51211.66
2022-12-18T22:05:07.050Z,51193.75
2022-12-18T22:07:34.257Z,51201.72
2022-12-18T22:10:02.004Z,51251.41
2022-12-18T22:12:41.597Z,51189.78
2022-12-18T22:15:21.661Z,51197.72
2022-12-18T22:17:50.740Z,51209.66
2022-12-18T22:20:20.196Z,51217.59
2022-12-18T22:22:48.720Z,51205.69
2022-12-18T22:25:15.807Z,51189.78
2022-12-18T22:27:42.813Z,51221.59
2022-12-18T22:30:14.483Z,51223.56
2022-12-18T22:32:41.467Z,51207.66
2022-12-18T22:35:14.316Z,51189.78
2022-12-18T22:37:42.933Z,51191.78
2022-12-18T22:40:25.318Z,51193.75
2022-12-18T22:42:56.246Z,51185.81
2022-12-18T22:45:24.714Z,51209.66
2022-12-18T22:47:51.934Z,51201.72
2022-12-18T22:50:18.966Z,51221.59
2022-12-18T22:52:45.965Z,51197.72
2022-12-18T22:55:12.870Z,51169.91
2022-12-18T22:57:41.182Z,51205.69
2022-12-18T23:00:16.551Z,51225.56
2022-12-18T23:02:45.783Z,51221.59
2022-12-18T23:05:12.825Z,51217.59
2022-12-18T23:07:39.766Z,51191.78
2022-12-18T23:10:07.140Z,51199.72
2022-12-18T23:12:34.165Z,51225.56
2022-12-18T23:15:05.293Z,51201.72
2022-12-18T23:17:32.294Z,51187.78
2022-12-18T23:19:59.228Z,51191.78
2022-12-18T23:22:27.638Z,51213.63
2022-12-18T23:24:54.618Z,51189.78
2022-12-18T23:27:21.685Z,51223.56
2022-12-18T23:29:48.682Z,51195.75
2022-12-18T23:32:16.302Z,51213.63
2022-12-18T23:34:43.794Z,51211.66
2022-12-18T23:37:10.703Z,51207.66
2022-12-18T23:39:37.694Z,51201.72
2022-12-18T23:42:04.727Z,51203.69
2022-12-18T23:44:31.753Z,51193.75
2022-12-18T23:46:58.804Z,51213.63
2022-12-18T23:49:25.768Z,51197.72
2022-12-18T23:51:55.150Z,51231.53
2022-12-18T23:54:30.166Z,51197.72
2022-12-18T23:57:01.575Z,51169.91
2022-12-18T23:59:28.505Z,51205.69
